Time;durP1;ratioP1;P1;durP2;ratioP2;P2;SDS_P1;SDS_P2;PMS_P1;PMS_P2;Temp;Humidity;BMP_temperature;BMP_pressure;BME280_temperature;BME280_humidity;BME280_pressure;Samples;Min_cycle;Max_cycle;Signal;HPM_P1;HPM_P2
2021/01/19 00:00:56;;;;;;;8.90;1.65;;;20.00;39.20;;;;;;4827519;29;20126;-72
2021/01/19 00:03:22;;;;;;;2.95;0.45;;;20.00;39.20;;;;;;4813831;29;20045;-72
2021/01/19 00:05:48;;;;;;;3.72;1.00;;;20.00;39.30;;;;;;4831086;29;20031;-73
2021/01/19 00:08:13;;;;;;;4.38;1.23;;;19.90;39.90;;;;;;4797127;29;20103;-73
2021/01/19 00:10:39;;;;;;;7.05;1.02;;;20.00;39.30;;;;;;4801074;29;20475;-73
2021/01/19 00:13:04;;;;;;;1.65;0.38;;;20.00;39.30;;;;;;4791814;29;20125;-72
2021/01/19 00:15:30;;;;;;;2.78;1.20;;;20.00;39.40;;;;;;4829067;29;20033;-72
2021/01/19 00:17:55;;;;;;;6.10;1.73;;;20.00;39.30;;;;;;4823607;29;20530;-73
2021/01/19 00:20:21;;;;;;;4.75;0.85;;;20.00;39.30;;;;;;4821633;29;20404;-73
2021/01/19 00:22:46;;;;;;;6.60;1.20;;;20.00;39.40;;;;;;4823646;29;20133;-73
2021/01/19 00:25:12;;;;;;;1.52;0.73;;;20.00;39.20;;;;;;4794269;29;20030;-72
2021/01/19 00:27:38;;;;;;;4.32;1.30;;;20.00;39.10;;;;;;4823654;29;20404;-72
2021/01/19 00:30:04;;;;;;;2.85;0.52;;;20.00;39.20;;;;;;4797544;29;20526;-69
2021/01/19 00:32:30;;;;;;;9.30;2.00;;;19.90;39.20;;;;;;4831115;29;20522;-72
2021/01/19 00:34:55;;;;;;;3.08;0.77;;;19.90;39.30;;;;;;4808590;29;20030;-72
2021/01/19 00:37:21;;;;;;;6.90;1.52;;;19.90;39.30;;;;;;4829567;29;20592;-73
2021/01/19 00:39:46;;;;;;;0.90;0.43;;;19.90;39.40;;;;;;4830604;29;20038;-73
2021/01/19 00:42:12;;;;;;;6.47;1.50;;;19.90;39.40;;;;;;4813066;29;20390;-73
2021/01/19 00:44:38;;;;;;;4.43;1.15;;;19.90;39.40;;;;;;4807248;29;21134;-73
2021/01/19 00:47:04;;;;;;;7.97;1.95;;;19.90;39.20;;;;;;4813995;29;20057;-73
2021/01/19 00:49:29;;;;;;;3.17;0.73;;;19.80;39.30;;;;;;4796031;29;20034;-73
2021/01/19 00:51:55;;;;;;;2.13;0.63;;;19.80;39.10;;;;;;4823562;29;20044;-73
2021/01/19 00:54:20;;;;;;;0.60;0.38;;;19.80;39.20;;;;;;4832391;29;20030;-76
2021/01/19 01:00:08;;;;;;;5.15;0.75;;;19.70;38.80;;;;;;4818865;29;20068;-76
2021/01/19 01:02:35;;;;;;;4.55;1.02;;;19.70;39.00;;;;;;4816246;29;20045;-77
2021/01/19 01:05:01;;;;;;;2.15;0.90;;;19.70;39.80;;;;;;4814990;29;20060;-77
2021/01/19 01:07:33;;;;;;;1.38;0.80;;;19.70;39.30;;;;;;4807233;29;20046;-73
2021/01/19 01:09:58;;;;;;;0.52;0.47;;;19.70;39.40;;;;;;4830208;29;20025;-74
2021/01/19 01:12:24;;;;;;;2.45;0.98;;;19.70;39.40;;;;;;4827087;29;20067;-75
2021/01/19 01:14:49;;;;;;;8.13;1.50;;;19.70;40.00;;;;;;4825784;29;20480;-73
2021/01/19 01:17:15;;;;;;;5.43;1.63;;;19.60;39.30;;;;;;4833773;29;20037;-72
2021/01/19 01:19:40;;;;;;;0.65;0.22;;;19.60;40.00;;;;;;4808345;29;20045;-72
2021/01/19 01:22:06;;;;;;;0.80;0.55;;;19.70;39.40;;;;;;4832670;29;20035;-72
2021/01/19 01:24:31;;;;;;;2.80;0.75;;;19.60;40.00;;;;;;4806635;29;20072;-76
2021/01/19 01:26:57;;;;;;;6.97;1.50;;;19.60;39.30;;;;;;4830137;29;20038;-72
2021/01/19 01:29:22;;;;;;;8.27;2.28;;;19.60;39.40;;;;;;4814856;29;20057;-72
2021/01/19 01:31:48;;;;;;;8.07;1.90;;;19.60;39.40;;;;;;4809348;29;20085;-75
2021/01/19 01:34:14;;;;;;;2.92;1.45;;;19.60;39.40;;;;;;4826124;29;20030;-75
2021/01/19 01:36:40;;;;;;;6.60;1.15;;;19.60;39.40;;;;;;4833981;29;20057;-75
2021/01/19 01:39:06;;;;;;;0.73;0.25;;;19.60;39.40;;;;;;4805117;29;20107;-76
2021/01/19 01:41:32;;;;;;;10.27;2.33;;;19.60;39.00;;;;;;4832125;29;20039;-76
2021/01/19 01:43:57;;;;;;;1.83;0.73;;;19.60;39.00;;;;;;4826645;29;20034;-75
2021/01/19 01:46:23;;;;;;;4.75;1.88;;;19.60;39.10;;;;;;4827240;29;20041;-75
2021/01/19 01:48:48;;;;;;;5.25;1.95;;;19.60;39.20;;;;;;4825514;29;20069;-75
2021/01/19 01:51:14;;;;;;;0.80;0.57;;;19.60;39.20;;;;;;4827770;29;20095;-76
2021/01/19 01:53:40;;;;;;;7.50;1.63;;;19.60;39.20;;;;;;4809719;29;20027;-75
2021/01/19 01:56:06;;;;;;;9.77;2.15;;;19.60;39.30;;;;;;4807917;29;20034;-75
2021/01/19 01:58:32;;;;;;;1.75;0.93;;;19.60;39.20;;;;;;4826625;29;20042;-76
2021/01/19 02:00:58;;;;;;;1.48;1.23;;;19.60;39.20;;;;;;4798832;29;20042;-76
2021/01/19 02:03:24;;;;;;;2.75;1.50;;;19.60;39.80;;;;;;4825749;29;20403;-76
2021/01/19 02:05:49;;;;;;;6.35;1.90;;;19.50;39.20;;;;;;4811963;29;20095;-78
2021/01/19 02:08:49;;;;;;;1.08;0.60;;;19.50;39.20;;;;;;4835395;29;20050;-77
2021/01/19 02:11:32;;;;;;;1.50;0.82;;;19.50;39.30;;;;;;4825442;29;20060;-71
2021/01/19 02:14:37;;;;;;;5.35;2.03;;;19.50;39.20;;;;;;4807381;29;20034;-72
2021/01/19 02:17:17;;;;;;;6.53;1.67;;;19.50;39.30;;;;;;4806254;29;20096;-72
2021/01/19 02:20:01;;;;;;;0.70;0.40;;;19.50;39.30;;;;;;4823763;29;20030;-73
2021/01/19 02:22:48;;;;;;;2.15;0.63;;;19.50;39.40;;;;;;4817395;29;20035;-73
2021/01/19 02:25:35;;;;;;;1.83;0.75;;;19.50;39.30;;;;;;4823842;29;20078;-72
2021/01/19 02:28:28;;;;;;;1.80;0.73;;;19.50;39.30;;;;;;4821193;29;20039;-72
2021/01/19 02:31:24;;;;;;;2.15;0.80;;;19.50;39.30;;;;;;4821576;29;20390;-72
2021/01/19 02:34:08;;;;;;;1.35;0.77;;;19.40;39.10;;;;;;4820639;29;20148;-72
2021/01/19 02:36:36;;;;;;;1.27;0.60;;;19.40;39.30;;;;;;4805479;29;20119;-73
2021/01/19 02:39:03;;;;;;;3.72;1.55;;;19.40;39.30;;;;;;4830723;29;20109;-72
2021/01/19 02:41:29;;;;;;;2.83;0.52;;;19.40;39.40;;;;;;4795826;29;20491;-72
2021/01/19 02:44:07;;;;;;;0.40;0.30;;;19.40;39.50;;;;;;4801937;29;20042;-72
2021/01/19 02:46:33;;;;;;;0.88;0.68;;;19.40;39.30;;;;;;4821327;29;20102;-72
2021/01/19 02:49:23;;;;;;;3.67;1.02;;;19.40;39.40;;;;;;4792817;29;20490;-72
2021/01/19 02:51:49;;;;;;;0.50;0.40;;;19.40;40.00;;;;;;4825249;29;20109;-73
2021/01/19 02:54:15;;;;;;;5.95;2.08;;;19.40;39.50;;;;;;4808767;29;20058;-72
2021/01/19 02:56:53;;;;;;;1.35;0.85;;;19.40;39.60;;;;;;4791271;29;20043;-72
2021/01/19 02:59:54;;;;;;;0.28;0.28;;;19.30;39.40;;;;;;4822333;29;20034;-72
2021/01/19 03:02:20;;;;;;;2.72;0.65;;;19.40;39.60;;;;;;4811567;29;20107;-72
2021/01/19 03:04:47;;;;;;;3.70;1.52;;;19.40;39.50;;;;;;4799128;29;20071;-72
2021/01/19 03:07:12;;;;;;;4.82;2.10;;;19.30;39.40;;;;;;4825164;29;20485;-72
2021/01/19 03:09:41;;;;;;;3.00;0.68;;;19.40;39.50;;;;;;4813284;29;20070;-72
2021/01/19 03:12:07;;;;;;;0.30;0.20;;;19.40;39.50;;;;;;4792154;29;20606;-71
2021/01/19 03:14:36;;;;;;;4.00;1.50;;;19.40;39.50;;;;;;4819429;29;20088;-72
2021/01/19 03:17:09;;;;;;;1.10;0.45;;;19.40;39.50;;;;;;4812207;29;20023;-72
2021/01/19 03:20:05;;;;;;;5.25;1.88;;;19.40;40.20;;;;;;4832277;29;20030;-72
2021/01/19 03:22:31;;;;;;;;;;;19.40;39.50;;;;;;4807130;29;20042;-72
2021/01/19 03:24:57;;;;;;;1.40;0.63;;;19.40;39.50;;;;;;4814562;29;19912;-72
2021/01/19 03:27:22;;;;;;;2.42;1.20;;;19.40;39.50;;;;;;4824141;29;20042;-72
2021/01/19 03:30:25;;;;;;;1.35;0.90;;;19.30;39.40;;;;;;4816383;29;20038;-72
2021/01/19 03:32:50;;;;;;;1.60;0.55;;;19.30;39.50;;;;;;4827031;29;20113;-73
2021/01/19 03:35:16;;;;;;;4.25;1.17;;;19.40;39.60;;;;;;4809821;29;20117;-73
2021/01/19 03:37:42;;;;;;;6.80;1.55;;;19.30;39.50;;;;;;4807558;29;20047;-73
2021/01/19 03:40:08;;;;;;;3.67;1.30;;;19.30;39.50;;;;;;4827351;29;20042;-73
2021/01/19 03:42:33;;;;;;;1.30;1.00;;;19.30;39.60;;;;;;4816964;29;20038;-73
2021/01/19 03:44:59;;;;;;;0.30;0.30;;;19.30;39.60;;;;;;4808665;29;20452;-72
2021/01/19 03:47:37;;;;;;;0.65;0.32;;;19.30;39.60;;;;;;4826445;29;20035;-72
2021/01/19 03:50:03;;;;;;;0.43;0.35;;;19.30;39.70;;;;;;4814462;29;20027;-72
2021/01/19 03:52:29;;;;;;;1.17;0.77;;;19.30;39.80;;;;;;4810018;29;20065;-72
2021/01/19 03:54:54;;;;;;;4.30;1.33;;;19.30;39.70;;;;;;4805190;29;20051;-72
2021/01/19 03:57:20;;;;;;;1.92;0.77;;;19.30;39.80;;;;;;4809957;29;20042;-72
2021/01/19 03:59:45;;;;;;;3.00;1.50;;;19.30;39.80;;;;;;4807697;29;20106;-72
2021/01/19 04:02:11;;;;;;;1.90;1.08;;;19.30;39.80;;;;;;4799957;29;20532;-72
2021/01/19 04:04:36;;;;;;;1.08;0.30;;;19.30;39.90;;;;;;4805816;29;20427;-72
2021/01/19 04:07:02;;;;;;;4.53;1.60;;;19.30;39.90;;;;;;4825479;29;20030;-72
2021/01/19 04:09:27;;;;;;;0.20;0.20;;;19.30;39.90;;;;;;4822658;29;20053;-72
2021/01/19 04:11:53;;;;;;;3.65;0.75;;;19.20;39.90;;;;;;4826744;29;20079;-72
2021/01/19 04:14:19;;;;;;;0.98;0.35;;;19.20;39.70;;;;;;4831602;29;20090;-73
2021/01/19 04:16:44;;;;;;;0.68;0.43;;;19.20;39.80;;;;;;4835809;29;20034;-72
2021/01/19 04:19:13;;;;;;;0.88;0.73;;;19.10;39.80;;;;;;4826504;29;20034;-72
2021/01/19 04:21:38;;;;;;;0.38;0.20;;;19.10;39.70;;;;;;4815644;29;20035;-73
2021/01/19 04:24:04;;;;;;;0.75;0.75;;;19.10;39.80;;;;;;4833450;29;20026;-73
2021/01/19 04:26:45;;;;;;;2.75;1.13;;;19.10;39.70;;;;;;4825712;29;20031;-73
2021/01/19 04:29:11;;;;;;;0.57;0.15;;;19.10;39.90;;;;;;4808086;29;20126;-73
2021/01/19 04:31:37;;;;;;;2.60;0.60;;;19.10;40.10;;;;;;4807007;29;20125;-73
2021/01/19 04:34:03;;;;;;;1.85;0.80;;;19.10;40.00;;;;;;4793039;29;20061;-74
2021/01/19 04:36:28;;;;;;;0.28;0.20;;;19.10;39.80;;;;;;4806329;29;20081;-74
2021/01/19 04:38:54;;;;;;;2.60;0.90;;;19.00;40.00;;;;;;4806591;29;20042;-74
2021/01/19 04:41:20;;;;;;;0.95;0.30;;;19.00;40.00;;;;;;4792344;29;20130;-73
2021/01/19 04:43:46;;;;;;;3.00;0.80;;;19.00;40.10;;;;;;4784677;29;20039;-74
2021/01/19 04:46:12;;;;;;;1.65;0.50;;;19.00;40.20;;;;;;4805778;29;20034;-73
2021/01/19 04:49:03;;;;;;;2.55;0.90;;;19.00;40.00;;;;;;4791737;29;20526;-73
2021/01/19 04:51:28;;;;;;;0.60;0.40;;;19.10;40.10;;;;;;4798602;29;20042;-74
2021/01/19 04:54:03;;;;;;;0.95;0.40;;;19.00;40.00;;;;;;4819823;29;20087;-77
2021/01/19 04:56:28;;;;;;;3.15;0.40;;;19.10;40.00;;;;;;4791285;29;20050;-73
2021/01/19 04:58:55;;;;;;;0.85;0.50;;;19.10;40.10;;;;;;4805383;29;20091;-73
2021/01/19 05:05:06;;;;;;;1.58;0.93;;;19.00;39.80;;;;;;4695036;30;20044;-73
2021/01/19 05:07:33;;;;;;;3.33;0.90;;;19.00;40.20;;;;;;4704167;30;20056;-73
2021/01/19 05:10:10;;;;;;;1.75;0.55;;;19.10;40.10;;;;;;4706967;30;20044;-75
2021/01/19 05:12:43;;;;;;;1.27;0.43;;;19.10;40.10;;;;;;4709460;30;20049;-73
2021/01/19 05:15:12;;;;;;;0.73;0.50;;;19.20;39.80;;;;;;4707109;30;20072;-74
2021/01/19 05:17:39;;;;;;;1.50;0.40;;;19.30;39.80;;;;;;4693668;30;20056;-73
2021/01/19 05:20:05;;;;;;;2.50;0.73;;;19.40;39.70;;;;;;4711130;30;20033;-73
2021/01/19 05:22:31;;;;;;;0.63;0.40;;;19.50;39.80;;;;;;4696993;30;20460;-74
2021/01/19 05:24:56;;;;;;;0.93;0.63;;;19.50;39.50;;;;;;4711712;30;20535;-71
2021/01/19 05:27:22;;;;;;;1.45;0.80;;;19.60;40.10;;;;;;4698505;30;20231;-72
2021/01/19 05:30:07;;;;;;;1.38;0.60;;;19.70;39.30;;;;;;4718573;30;20065;-72
2021/01/19 05:32:39;;;;;;;1.02;0.60;;;19.70;39.20;;;;;;4710523;30;20056;-72
2021/01/19 05:35:18;;;;;;;0.43;0.40;;;19.80;39.20;;;;;;4709225;30;20084;-72
2021/01/19 05:37:56;;;;;;;2.47;0.57;;;19.80;39.20;;;;;;4701632;30;20037;-72
2021/01/19 05:40:21;;;;;;;0.73;0.70;;;19.80;39.10;;;;;;4714035;29;20047;-72
2021/01/19 05:42:47;;;;;;;3.40;0.50;;;19.90;39.20;;;;;;4814894;29;20054;-72
2021/01/19 05:45:13;;;;;;;0.30;0.30;;;19.90;39.20;;;;;;4816114;29;20117;-71
2021/01/19 05:47:38;;;;;;;2.92;0.65;;;19.90;39.00;;;;;;4833275;29;20526;-71
2021/01/19 05:50:04;;;;;;;2.15;0.70;;;20.00;39.00;;;;;;4793246;29;20034;-71
2021/01/19 05:52:33;;;;;;;2.05;0.52;;;20.00;39.00;;;;;;4827235;29;20072;-72
2021/01/19 05:55:54;;;;;;;1.48;0.60;;;20.00;39.00;;;;;;4833354;29;20094;-73
2021/01/19 05:58:20;;;;;;;0.75;0.30;;;20.10;39.00;;;;;;4829300;29;20495;-73
2021/01/19 06:00:45;;;;;;;0.75;0.63;;;20.10;38.90;;;;;;4789740;29;20067;-72
2021/01/19 06:03:16;;;;;;;0.73;0.40;;;20.10;38.90;;;;;;4810990;29;20026;-71
2021/01/19 06:05:42;;;;;;;0.90;0.60;;;20.20;38.90;;;;;;4801706;29;20042;-71
2021/01/19 06:08:09;;;;;;;1.17;0.82;;;20.20;38.90;;;;;;4799483;29;20431;-71
2021/01/19 06:10:35;;;;;;;1.13;0.40;;;20.20;38.80;;;;;;4793059;29;20173;-71
2021/01/19 06:13:00;;;;;;;1.00;0.43;;;20.20;38.80;;;;;;4795388;29;20039;-71
2021/01/19 06:15:27;;;;;;;0.30;0.30;;;20.20;38.90;;;;;;4782487;29;20538;-71
2021/01/19 06:17:52;;;;;;;1.23;0.57;;;20.20;38.90;;;;;;4803053;29;20465;-71
2021/01/19 06:20:18;;;;;;;1.42;0.60;;;20.20;38.80;;;;;;4830629;29;20031;-72
2021/01/19 06:22:43;;;;;;;1.20;0.50;;;20.20;38.90;;;;;;4832177;29;20026;-72
2021/01/19 06:25:12;;;;;;;0.85;0.60;;;20.20;38.90;;;;;;4814294;29;20061;-72
2021/01/19 06:27:39;;;;;;;0.65;0.30;;;20.30;38.90;;;;;;4835526;29;20087;-72
2021/01/19 06:30:10;;;;;;;0.77;0.32;;;20.30;38.90;;;;;;4828471;29;20038;-72
2021/01/19 06:32:55;;;;;;;2.70;0.40;;;20.30;38.90;;;;;;4839826;29;20033;-72
2021/01/19 06:35:22;;;;;;;0.25;0.25;;;20.20;39.00;;;;;;4812958;29;20058;-71
2021/01/19 06:37:49;;;;;;;0.68;0.38;;;20.30;38.90;;;;;;4793861;29;20046;-71
2021/01/19 06:40:17;;;;;;;0.90;0.50;;;20.30;38.90;;;;;;4801092;29;20050;-71
2021/01/19 06:42:45;;;;;;;0.70;0.43;;;20.30;39.00;;;;;;4808048;29;20038;-71
2021/01/19 06:45:12;;;;;;;0.93;0.40;;;20.30;39.10;;;;;;4798175;29;20033;-71
2021/01/19 06:47:47;;;;;;;1.55;0.52;;;20.30;39.00;;;;;;4837846;29;20045;-71
2021/01/19 06:50:13;;;;;;;;;;;20.30;39.00;;;;;;4815127;29;20031;-71
2021/01/19 06:52:41;;;;;;;4.77;0.70;;;20.30;39.10;;;;;;4824353;29;20270;-71
2021/01/19 06:55:10;;;;;;;0.57;0.32;;;20.30;39.00;;;;;;4835514;29;20293;-71
2021/01/19 06:57:45;;;;;;;0.60;0.50;;;20.30;39.00;;;;;;4837739;29;20034;-75
2021/01/19 07:00:17;;;;;;;1.85;0.50;;;20.30;39.00;;;;;;4827586;29;20030;-75
2021/01/19 07:02:43;;;;;;;0.65;0.50;;;20.30;39.00;;;;;;4824920;29;20034;-75
2021/01/19 07:05:10;;;;;;;0.68;0.40;;;20.30;39.00;;;;;;4803292;29;20030;-75
2021/01/19 07:07:41;;;;;;;1.08;0.40;;;20.30;39.20;;;;;;4794397;29;20526;-71
2021/01/19 07:10:07;;;;;;;1.60;0.55;;;20.30;39.10;;;;;;4811350;29;20026;-71
2021/01/19 07:12:51;;;;;;;1.27;0.60;;;20.30;39.00;;;;;;4832638;29;20030;-71
2021/01/19 07:15:18;;;;;;;2.17;0.50;;;20.30;39.10;;;;;;4826236;29;20455;-71
2021/01/19 07:18:02;;;;;;;1.27;0.47;;;20.30;39.00;;;;;;4808173;29;20026;-71
2021/01/19 07:20:31;;;;;;;2.83;0.43;;;20.30;39.00;;;;;;4823340;29;20403;-71
2021/01/19 07:23:01;;;;;;;2.45;0.32;;;20.30;39.10;;;;;;4810613;29;20030;-71
2021/01/19 07:25:27;;;;;;;0.75;0.35;;;20.30;39.20;;;;;;4826261;29;20054;-70
2021/01/19 07:27:55;;;;;;;0.52;0.40;;;20.30;39.10;;;;;;4824123;29;20074;-75
2021/01/19 07:30:54;;;;;;;1.90;0.47;;;20.30;39.10;;;;;;4822078;29;20518;-76
2021/01/19 07:33:35;;;;;;;1.92;0.40;;;20.30;39.20;;;;;;4824494;29;20026;-75
2021/01/19 07:36:01;;;;;;;2.17;0.50;;;20.30;39.20;;;;;;4791661;29;20043;-75
2021/01/19 07:38:26;;;;;;;1.60;0.40;;;20.30;39.30;;;;;;4794730;29;20030;-77
2021/01/19 07:40:52;;;;;;;1.77;0.65;;;20.30;39.40;;;;;;4810335;29;20046;-77
2021/01/19 07:43:18;;;;;;;1.63;0.40;;;20.30;39.20;;;;;;4828682;29;20026;-75
2021/01/19 07:46:06;;;;;;;0.47;0.40;;;20.30;39.20;;;;;;4813836;29;20548;-76
2021/01/19 07:48:33;;;;;;;1.35;0.30;;;20.30;39.20;;;;;;4822845;29;20101;-76
2021/01/19 07:51:17;;;;;;;0.38;0.28;;;20.30;39.30;;;;;;4819107;29;20049;-75
2021/01/19 07:53:53;;;;;;;0.88;0.40;;;20.30;39.20;;;;;;4806239;29;20069;-75
2021/01/19 07:56:29;;;;;;;1.00;0.28;;;20.30;39.30;;;;;;4798766;29;20442;-76
2021/01/19 07:58:54;;;;;;;1.73;0.73;;;20.30;39.40;;;;;;4797290;29;20046;-74
2021/01/19 08:01:30;;;;;;;0.40;0.40;;;20.30;39.30;;;;;;4808620;29;20056;-76
2021/01/19 08:04:13;;;;;;;2.85;0.40;;;20.30;39.30;;;;;;4820712;29;20048;-73
2021/01/19 08:06:42;;;;;;;2.72;0.50;;;20.20;39.20;;;;;;4824503;29;20495;-76
2021/01/19 08:09:15;;;;;;;1.77;0.30;;;20.20;39.10;;;;;;4825627;29;20046;-73
2021/01/19 08:11:42;;;;;;;3.22;0.57;;;20.20;39.20;;;;;;4809351;29;20128;-75
2021/01/19 08:14:16;;;;;;;0.95;0.43;;;20.20;39.30;;;;;;4811038;29;20029;-74
2021/01/19 08:16:47;;;;;;;0.25;0.25;;;20.20;39.50;;;;;;4806050;29;20423;-75
2021/01/19 08:19:14;;;;;;;0.88;0.40;;;20.20;40.10;;;;;;4799422;29;20107;-75
2021/01/19 08:21:52;;;;;;;0.93;0.40;;;20.30;39.50;;;;;;4803651;29;20046;-74
2021/01/19 08:24:22;;;;;;;1.73;0.38;;;20.30;39.50;;;;;;4807738;29;20530;-75
2021/01/19 08:26:48;;;;;;;1.05;0.30;;;20.30;39.50;;;;;;4818920;29;20054;-75
2021/01/19 08:29:16;;;;;;;1.52;0.40;;;20.30;39.40;;;;;;4795868;29;20031;-75
2021/01/19 08:31:42;;;;;;;0.55;0.30;;;20.30;39.30;;;;;;4832125;29;20030;-75
2021/01/19 08:34:08;;;;;;;0.63;0.20;;;20.20;39.30;;;;;;4799986;29;20113;-70
2021/01/19 08:36:34;;;;;;;0.60;0.30;;;20.20;39.40;;;;;;4823965;29;20117;-70
2021/01/19 08:39:01;;;;;;;1.42;0.50;;;20.20;39.30;;;;;;4793092;29;20046;-71
2021/01/19 08:41:27;;;;;;;0.50;0.28;;;20.30;39.50;;;;;;4790226;29;20137;-70
2021/01/19 08:43:56;;;;;;;0.85;0.50;;;20.20;39.20;;;;;;4803332;29;20117;-70
2021/01/19 08:46:26;;;;;;;0.65;0.38;;;20.20;39.50;;;;;;4825135;29;20453;-70
2021/01/19 08:48:51;;;;;;;0.77;0.40;;;20.20;39.60;;;;;;4787943;29;20033;-70
2021/01/19 08:51:24;;;;;;;2.17;0.30;;;20.20;39.50;;;;;;4828788;29;20117;-69
2021/01/19 08:53:50;;;;;;;0.65;0.40;;;20.20;39.40;;;;;;4775259;29;20070;-69
2021/01/19 08:56:17;;;;;;;1.50;0.40;;;20.30;39.40;;;;;;4806851;29;20050;-71
2021/01/19 09:05:30;;;;;;;0.88;0.55;;;20.20;39.50;;;;;;4826291;29;20059;-75
2021/01/19 09:07:58;;;;;;;0.47;0.20;;;20.10;39.40;;;;;;4823776;29;20043;-75
2021/01/19 09:10:28;;;;;;;0.60;0.40;;;20.10;39.50;;;;;;4812649;29;20054;-74
2021/01/19 09:12:54;;;;;;;1.25;0.22;;;20.10;39.70;;;;;;4807649;29;20485;-75
2021/01/19 09:15:20;;;;;;;0.25;0.25;;;20.10;39.80;;;;;;4805352;29;20034;-72
2021/01/19 09:17:52;;;;;;;1.38;0.40;;;20.10;39.80;;;;;;4821419;29;20091;-72
2021/01/19 09:20:18;;;;;;;0.50;0.20;;;20.10;39.70;;;;;;4812023;29;20090;-72
2021/01/19 09:22:43;;;;;;;0.25;0.20;;;20.10;39.80;;;;;;4807110;29;20030;-72
2021/01/19 09:25:10;;;;;;;1.25;0.47;;;20.00;40.00;;;;;;4831852;29;20037;-71
2021/01/19 09:27:36;;;;;;;0.52;0.22;;;20.00;39.80;;;;;;4833264;29;20034;-75
2021/01/19 09:30:11;;;;;;;0.30;0.20;;;20.00;39.90;;;;;;4807032;29;20399;-75
2021/01/19 09:32:38;;;;;;;0.50;0.30;;;20.00;39.90;;;;;;4821012;29;20073;-77
2021/01/19 09:35:04;;;;;;;2.45;0.57;;;20.00;40.00;;;;;;4791900;29;20034;-75
2021/01/19 09:37:29;;;;;;;1.23;0.30;;;20.00;39.90;;;;;;4800369;29;20087;-75
2021/01/19 09:39:55;;;;;;;0.28;0.28;;;20.00;40.00;;;;;;4791018;29;20119;-76
2021/01/19 09:42:21;;;;;;;1.15;0.47;;;20.00;40.10;;;;;;4806282;29;20050;-76
2021/01/19 09:44:47;;;;;;;1.02;0.47;;;20.00;40.00;;;;;;4794849;29;20030;-78
2021/01/19 09:47:19;;;;;;;0.40;0.38;;;20.00;40.10;;;;;;4818022;29;20041;-78
2021/01/19 09:49:51;;;;;;;1.83;0.30;;;20.00;40.20;;;;;;4799572;29;20139;-73
2021/01/19 09:52:17;;;;;;;0.20;0.20;;;20.00;40.10;;;;;;4808136;29;20494;-73
2021/01/19 09:54:45;;;;;;;0.10;0.10;;;20.00;40.10;;;;;;4825713;29;20031;-72
2021/01/19 09:57:11;;;;;;;0.50;0.20;;;20.00;40.30;;;;;;4826436;29;20509;-72
2021/01/19 09:59:38;;;;;;;0.73;0.38;;;20.00;40.30;;;;;;4826552;29;20038;-73
2021/01/19 10:02:04;;;;;;;0.47;0.20;;;19.90;41.00;;;;;;4796000;29;20039;-72
2021/01/19 10:04:31;;;;;;;0.95;0.30;;;19.90;40.30;;;;;;4812658;29;20502;-74
2021/01/19 10:07:09;;;;;;;0.30;0.30;;;19.90;40.40;;;;;;4829477;29;20041;-73
2021/01/19 10:09:36;;;;;;;0.70;0.40;;;19.90;40.30;;;;;;4829012;29;20041;-77
2021/01/19 10:12:06;;;;;;;1.23;0.20;;;19.90;40.60;;;;;;4794346;29;20154;-73
2021/01/19 10:14:36;;;;;;;0.68;0.30;;;19.80;40.50;;;;;;4811021;29;20518;-72
2021/01/19 10:17:02;;;;;;;0.20;0.20;;;19.90;40.60;;;;;;4793158;29;20049;-72
2021/01/19 10:19:29;;;;;;;0.20;0.20;;;19.90;40.60;;;;;;4812412;29;20046;-79
2021/01/19 10:22:02;;;;;;;0.30;0.30;;;19.90;40.70;;;;;;4791372;29;20121;-77
2021/01/19 10:24:27;;;;;;;1.75;0.20;;;19.90;40.70;;;;;;4813028;29;20022;-78
2021/01/19 10:27:04;;;;;;;1.08;0.30;;;19.90;40.70;;;;;;4808360;29;20046;-78
2021/01/19 10:29:51;;;;;;;0.52;0.30;;;20.00;40.70;;;;;;4810453;29;20138;-79
2021/01/19 10:32:20;;;;;;;0.38;0.20;;;19.90;40.70;;;;;;4830057;29;20047;-80
2021/01/19 10:34:50;;;;;;;2.05;0.25;;;19.90;40.80;;;;;;4832186;29;20109;-79
2021/01/19 10:37:16;;;;;;;0.55;0.22;;;19.90;40.80;;;;;;4799424;29;20038;-79
2021/01/19 10:39:59;;;;;;;1.05;0.40;;;19.90;40.80;;;;;;4809132;29;20034;-76
2021/01/19 10:42:29;;;;;;;0.75;0.40;;;20.00;41.10;;;;;;4804824;29;20054;-75
2021/01/19 10:45:03;;;;;;;0.30;0.30;;;19.90;41.00;;;;;;4804602;29;20137;-75
2021/01/19 10:47:40;;;;;;;0.90;0.32;;;19.90;41.50;;;;;;4804632;29;20471;-75
2021/01/19 10:50:32;;;;;;;1.02;0.50;;;19.90;41.20;;;;;;4805554;29;20110;-75
2021/01/19 10:53:02;;;;;;;0.43;0.20;;;19.90;41.30;;;;;;4799324;29;20054;-76
2021/01/19 10:55:28;;;;;;;0.57;0.32;;;20.00;41.40;;;;;;4819251;29;20043;-76
2021/01/19 10:57:58;;;;;;;0.50;0.47;;;20.00;41.30;;;;;;4820946;29;20130;-72
2021/01/19 11:00:25;;;;;;;0.35;0.30;;;20.00;41.20;;;;;;4789554;29;20042;-71
2021/01/19 11:02:50;;;;;;;0.50;0.17;;;20.00;41.30;;;;;;4820370;29;20517;-71
2021/01/19 11:05:16;;;;;;;1.55;0.40;;;20.00;41.30;;;;;;4808035;29;20125;-72
2021/01/19 11:07:45;;;;;;;3.50;0.30;;;20.10;41.30;;;;;;4825199;29;20035;-71
2021/01/19 11:10:12;;;;;;;0.40;0.22;;;20.10;41.20;;;;;;4775350;29;20041;-71
2021/01/19 11:12:38;;;;;;;1.45;0.40;;;20.10;41.20;;;;;;4821741;29;20041;-71
2021/01/19 11:15:05;;;;;;;4.03;0.50;;;20.10;41.30;;;;;;4804933;29;20026;-71
2021/01/19 11:17:31;;;;;;;0.75;0.35;;;20.00;41.30;;;;;;4808520;29;20423;-71
2021/01/19 11:19:56;;;;;;;2.15;0.30;;;20.10;41.50;;;;;;4822898;29;20039;-72
2021/01/19 11:22:22;;;;;;;0.20;0.20;;;20.10;41.30;;;;;;4807499;29;20035;-71
2021/01/19 11:24:47;;;;;;;1.20;0.40;;;20.10;41.30;;;;;;4825333;29;20034;-72
2021/01/19 11:27:13;;;;;;;0.20;0.20;;;20.00;41.50;;;;;;4825317;29;20101;-71
2021/01/19 11:29:38;;;;;;;0.32;0.20;;;20.00;41.60;;;;;;4807923;29;20069;-72
2021/01/19 11:32:04;;;;;;;0.90;0.30;;;20.10;42.20;;;;;;4823939;29;20045;-72
2021/01/19 11:34:29;;;;;;;0.65;0.20;;;20.10;41.50;;;;;;4825095;29;20133;-72
2021/01/19 11:36:55;;;;;;;0.47;0.28;;;20.10;41.50;;;;;;4823939;29;20038;-76
2021/01/19 11:39:20;;;;;;;0.28;0.10;;;20.10;41.60;;;;;;4807507;29;20069;-76
2021/01/19 11:41:47;;;;;;;0.10;0.10;;;20.10;41.60;;;;;;4807917;29;20073;-76
2021/01/19 11:44:13;;;;;;;0.88;0.25;;;20.10;41.60;;;;;;4807967;29;20079;-76
2021/01/19 11:46:38;;;;;;;0.52;0.20;;;20.10;41.60;;;;;;4823075;29;20038;-75
2021/01/19 11:49:04;;;;;;;0.77;0.20;;;20.10;41.60;;;;;;4793006;29;20030;-75
2021/01/19 11:51:31;;;;;;;0.63;0.20;;;20.10;41.70;;;;;;4807610;29;20035;-75
2021/01/19 11:53:58;;;;;;;0.20;0.20;;;20.10;41.80;;;;;;4790656;29;20230;-75
2021/01/19 11:56:42;;;;;;;0.38;0.20;;;20.10;41.80;;;;;;4824101;29;20518;-75
2021/01/19 11:59:08;;;;;;;0.63;0.32;;;20.10;41.70;;;;;;4808023;29;20066;-75
2021/01/19 12:01:34;;;;;;;0.40;0.30;;;20.10;41.90;;;;;;4807187;29;20525;-75
2021/01/19 12:04:00;;;;;;;1.85;0.10;;;20.00;41.90;;;;;;4820431;29;20033;-76
2021/01/19 12:06:26;;;;;;;0.20;0.20;;;20.00;42.00;;;;;;4823569;29;20030;-75
2021/01/19 12:08:52;;;;;;;0.63;0.40;;;20.00;42.00;;;;;;4822391;29;20038;-75
2021/01/19 12:11:18;;;;;;;0.10;0.10;;;20.00;42.10;;;;;;4791401;29;20515;-72
2021/01/19 12:13:44;;;;;;;1.50;0.30;;;20.00;42.10;;;;;;4775176;29;20075;-72
2021/01/19 12:16:10;;;;;;;0.22;0.22;;;19.90;42.10;;;;;;4792120;29;20499;-71
2021/01/19 12:18:36;;;;;;;0.52;0.40;;;19.90;42.10;;;;;;4788868;29;20038;-72
2021/01/19 12:21:02;;;;;;;1.17;0.32;;;19.90;42.10;;;;;;4806494;29;20054;-72
2021/01/19 12:23:34;;;;;;;0.38;0.20;;;19.90;42.10;;;;;;4806034;29;20480;-71
2021/01/19 12:26:00;;;;;;;1.38;0.22;;;19.90;42.10;;;;;;4803950;29;20065;-72
2021/01/19 12:28:25;;;;;;;0.47;0.20;;;20.00;42.20;;;;;;4822816;29;20578;-75
2021/01/19 12:30:52;;;;;;;0.20;0.20;;;20.00;42.20;;;;;;4791975;29;20192;-75
2021/01/19 12:33:18;;;;;;;0.15;0.15;;;20.00;42.20;;;;;;4793697;29;20030;-72
2021/01/19 12:35:44;;;;;;;2.40;0.57;;;20.00;42.30;;;;;;4792400;29;20046;-71
2021/01/19 12:38:10;;;;;;;0.85;0.40;;;19.90;42.40;;;;;;4807878;29;20396;-72
2021/01/19 12:40:35;;;;;;;0.70;0.30;;;19.90;42.40;;;;;;4823988;29;20062;-71
2021/01/19 12:43:01;;;;;;;0.28;0.28;;;19.90;42.50;;;;;;4807572;29;20400;-72
2021/01/19 12:45:26;;;;;;;0.52;0.43;;;19.80;42.50;;;;;;4826031;29;20076;-71
2021/01/19 12:47:52;;;;;;;0.10;0.10;;;19.80;42.60;;;;;;4811266;29;20026;-71
2021/01/19 12:50:18;;;;;;;0.38;0.25;;;19.80;42.70;;;;;;4782383;29;20047;-71
2021/01/19 12:52:44;;;;;;;0.50;0.38;;;19.80;42.60;;;;;;4792608;29;20041;-72
2021/01/19 12:55:10;;;;;;;0.30;0.30;;;19.80;42.70;;;;;;4804633;29;20114;-72
2021/01/19 12:57:36;;;;;;;2.15;0.45;;;19.80;42.70;;;;;;4806533;29;20033;-75
2021/01/19 13:00:01;;;;;;;2.45;0.40;;;19.80;42.70;;;;;;4808665;29;20038;-75
2021/01/19 13:02:27;;;;;;;2.22;0.40;;;19.90;42.80;;;;;;4841956;29;20522;-72
2021/01/19 13:04:52;;;;;;;0.10;0.10;;;19.90;42.80;;;;;;4807504;29;20411;-71
2021/01/19 13:07:22;;;;;;;1.13;0.30;;;19.90;42.70;;;;;;4821927;29;20041;-71
2021/01/19 13:09:49;;;;;;;0.43;0.20;;;19.90;42.60;;;;;;4792488;29;20038;-71
2021/01/19 13:12:16;;;;;;;0.35;0.30;;;19.90;42.60;;;;;;4823134;29;20050;-75